sensor_id;sensor_type;location;lat;lon;timestamp;P1;durP1;ratioP1;P2;durP2;ratioP2
22849;SDS011;11591;44.792;10.358;2022-10-16T00:02:00;36.83;;;16.98;;
22849;SDS011;11591;44.792;10.358;2022-10-16T00:04:27;26.75;;;15.18;;
22849;SDS011;11591;44.792;10.358;2022-10-16T00:06:52;29.35;;;16.25;;
22849;SDS011;11591;44.792;10.358;2022-10-16T00:09:18;27.92;;;15.32;;
22849;SDS011;11591;44.792;10.358;2022-10-16T00:11:44;42.42;;;20.40;;
22849;SDS011;11591;44.792;10.358;2022-10-16T00:14:11;39.88;;;20.73;;
22849;SDS011;11591;44.792;10.358;2022-10-16T00:16:39;39.55;;;21.42;;
22849;SDS011;11591;44.792;10.358;2022-10-16T00:19:05;36.75;;;18.45;;
22849;SDS011;11591;44.792;10.358;2022-10-16T00:21:31;34.72;;;17.98;;
22849;SDS011;11591;44.792;10.358;2022-10-16T00:23:58;36.35;;;17.58;;
22849;SDS011;11591;44.792;10.358;2022-10-16T00:26:26;34.33;;;17.63;;
22849;SDS011;11591;44.792;10.358;2022-10-16T00:28:54;26.98;;;15.70;;
22849;SDS011;11591;44.792;10.358;2022-10-16T00:31:21;27.65;;;15.68;;
22849;SDS011;11591;44.792;10.358;2022-10-16T00:33:47;29.77;;;15.90;;
22849;SDS011;11591;44.792;10.358;2022-10-16T00:36:14;31.30;;;16.05;;
22849;SDS011;11591;44.792;10.358;2022-10-16T00:38:41;32.53;;;16.13;;
22849;SDS011;11591;44.792;10.358;2022-10-16T00:41:09;29.25;;;16.13;;
22849;SDS011;11591;44.792;10.358;2022-10-16T00:51:22;36.75;;;16.67;;
22849;SDS011;11591;44.792;10.358;2022-10-16T00:53:52;32.20;;;16.85;;
22849;SDS011;11591;44.792;10.358;2022-10-16T00:56:18;29.15;;;16.10;;
22849;SDS011;11591;44.792;10.358;2022-10-16T00:58:43;32.88;;;16.80;;
22849;SDS011;11591;44.792;10.358;2022-10-16T01:01:09;33.38;;;17.42;;
22849;SDS011;11591;44.792;10.358;2022-10-16T01:03:36;35.53;;;18.33;;
22849;SDS011;11591;44.792;10.358;2022-10-16T01:08:52;35.72;;;17.35;;
22849;SDS011;11591;44.792;10.358;2022-10-16T01:11:38;33.28;;;18.52;;
22849;SDS011;11591;44.792;10.358;2022-10-16T01:14:25;33.28;;;17.65;;
22849;SDS011;11591;44.792;10.358;2022-10-16T01:17:02;36.78;;;18.30;;
22849;SDS011;11591;44.792;10.358;2022-10-16T01:22:18;33.92;;;17.35;;
22849;SDS011;11591;44.792;10.358;2022-10-16T01:24:48;36.88;;;16.90;;
22849;SDS011;11591;44.792;10.358;2022-10-16T01:35:09;30.98;;;16.08;;
22849;SDS011;11591;44.792;10.358;2022-10-16T01:37:41;28.70;;;15.90;;
22849;SDS011;11591;44.792;10.358;2022-10-16T01:40:17;31.33;;;15.95;;
22849;SDS011;11591;44.792;10.358;2022-10-16T01:42:50;28.70;;;16.10;;
22849;SDS011;11591;44.792;10.358;2022-10-16T01:45:23;26.50;;;14.52;;
22849;SDS011;11591;44.792;10.358;2022-10-16T01:47:49;30.58;;;16.67;;
22849;SDS011;11591;44.792;10.358;2022-10-16T01:50:18;32.85;;;16.52;;
22849;SDS011;11591;44.792;10.358;2022-10-16T01:52:46;32.78;;;16.70;;
22849;SDS011;11591;44.792;10.358;2022-10-16T01:55:16;33.45;;;17.38;;
22849;SDS011;11591;44.792;10.358;2022-10-16T01:57:56;33.70;;;17.90;;
22849;SDS011;11591;44.792;10.358;2022-10-16T02:00:25;40.20;;;22.10;;
22849;SDS011;11591;44.792;10.358;2022-10-16T02:02:53;32.53;;;17.98;;
22849;SDS011;11591;44.792;10.358;2022-10-16T02:05:25;32.75;;;17.48;;
22849;SDS011;11591;44.792;10.358;2022-10-16T02:08:27;36.83;;;19.63;;
22849;SDS011;11591;44.792;10.358;2022-10-16T02:10:55;30.42;;;18.13;;
22849;SDS011;11591;44.792;10.358;2022-10-16T02:13:24;36.10;;;18.92;;
22849;SDS011;11591;44.792;10.358;2022-10-16T02:15:54;34.42;;;17.98;;
22849;SDS011;11591;44.792;10.358;2022-10-16T02:18:20;31.25;;;17.08;;
22849;SDS011;11591;44.792;10.358;2022-10-16T02:20:55;33.80;;;16.77;;
22849;SDS011;11591;44.792;10.358;2022-10-16T02:23:27;28.38;;;16.80;;
22849;SDS011;11591;44.792;10.358;2022-10-16T02:26:17;28.83;;;17.08;;
22849;SDS011;11591;44.792;10.358;2022-10-16T02:28:52;30.48;;;17.08;;
22849;SDS011;11591;44.792;10.358;2022-10-16T02:31:24;32.72;;;18.50;;
22849;SDS011;11591;44.792;10.358;2022-10-16T02:33:53;32.85;;;17.50;;
22849;SDS011;11591;44.792;10.358;2022-10-16T02:36:23;37.08;;;17.40;;
22849;SDS011;11591;44.792;10.358;2022-10-16T02:38:50;31.67;;;17.60;;
22849;SDS011;11591;44.792;10.358;2022-10-16T02:41:17;36.25;;;18.13;;
22849;SDS011;11591;44.792;10.358;2022-10-16T02:43:43;30.98;;;17.23;;
22849;SDS011;11591;44.792;10.358;2022-10-16T02:46:09;34.63;;;16.92;;
22849;SDS011;11591;44.792;10.358;2022-10-16T02:48:35;33.33;;;17.38;;
22849;SDS011;11591;44.792;10.358;2022-10-16T02:51:00;35.92;;;17.73;;
22849;SDS011;11591;44.792;10.358;2022-10-16T02:53:26;34.28;;;16.92;;
22849;SDS011;11591;44.792;10.358;2022-10-16T02:55:52;25.70;;;15.63;;
22849;SDS011;11591;44.792;10.358;2022-10-16T02:58:18;32.95;;;16.60;;
22849;SDS011;11591;44.792;10.358;2022-10-16T03:00:43;32.53;;;17.02;;
22849;SDS011;11591;44.792;10.358;2022-10-16T03:03:09;38.17;;;17.17;;
22849;SDS011;11591;44.792;10.358;2022-10-16T03:05:35;27.73;;;15.82;;
22849;SDS011;11591;44.792;10.358;2022-10-16T03:08:01;31.50;;;16.88;;
22849;SDS011;11591;44.792;10.358;2022-10-16T03:10:27;32.40;;;16.27;;
22849;SDS011;11591;44.792;10.358;2022-10-16T03:12:52;27.10;;;15.95;;
22849;SDS011;11591;44.792;10.358;2022-10-16T03:15:18;28.30;;;15.75;;
22849;SDS011;11591;44.792;10.358;2022-10-16T03:17:44;28.30;;;15.50;;
22849;SDS011;11591;44.792;10.358;2022-10-16T03:20:10;29.65;;;14.77;;
22849;SDS011;11591;44.792;10.358;2022-10-16T03:22:35;28.23;;;15.35;;
22849;SDS011;11591;44.792;10.358;2022-10-16T03:25:01;28.15;;;16.45;;
22849;SDS011;11591;44.792;10.358;2022-10-16T03:27:27;28.95;;;17.73;;
22849;SDS011;11591;44.792;10.358;2022-10-16T03:29:53;29.67;;;16.80;;
22849;SDS011;11591;44.792;10.358;2022-10-16T03:32:19;27.80;;;15.60;;
22849;SDS011;11591;44.792;10.358;2022-10-16T03:34:45;31.05;;;16.40;;
22849;SDS011;11591;44.792;10.358;2022-10-16T03:37:11;29.73;;;16.23;;
22849;SDS011;11591;44.792;10.358;2022-10-16T03:39:37;33.97;;;16.48;;
22849;SDS011;11591;44.792;10.358;2022-10-16T03:42:03;31.15;;;15.93;;
22849;SDS011;11591;44.792;10.358;2022-10-16T03:44:28;32.28;;;15.90;;
22849;SDS011;11591;44.792;10.358;2022-10-16T03:46:54;32.33;;;16.88;;
22849;SDS011;11591;44.792;10.358;2022-10-16T03:49:20;28.67;;;16.23;;
22849;SDS011;11591;44.792;10.358;2022-10-16T03:51:46;29.02;;;16.55;;
22849;SDS011;11591;44.792;10.358;2022-10-16T03:54:12;28.10;;;15.70;;
22849;SDS011;11591;44.792;10.358;2022-10-16T03:56:38;30.73;;;16.00;;
22849;SDS011;11591;44.792;10.358;2022-10-16T03:59:03;28.80;;;14.82;;
22849;SDS011;11591;44.792;10.358;2022-10-16T04:01:29;26.92;;;15.98;;
22849;SDS011;11591;44.792;10.358;2022-10-16T04:03:55;24.77;;;14.52;;
22849;SDS011;11591;44.792;10.358;2022-10-16T04:06:21;28.65;;;14.70;;
22849;SDS011;11591;44.792;10.358;2022-10-16T04:08:47;29.15;;;14.02;;
22849;SDS011;11591;44.792;10.358;2022-10-16T04:11:12;26.92;;;15.25;;
22849;SDS011;11591;44.792;10.358;2022-10-16T04:13:38;26.80;;;14.65;;
22849;SDS011;11591;44.792;10.358;2022-10-16T04:16:07;24.73;;;13.73;;
22849;SDS011;11591;44.792;10.358;2022-10-16T04:18:36;19.38;;;12.63;;
22849;SDS011;11591;44.792;10.358;2022-10-16T04:21:03;28.40;;;12.57;;
22849;SDS011;11591;44.792;10.358;2022-10-16T04:23:30;22.67;;;12.23;;
22849;SDS011;11591;44.792;10.358;2022-10-16T04:25:57;22.60;;;11.45;;
22849;SDS011;11591;44.792;10.358;2022-10-16T04:28:23;19.33;;;10.70;;
22849;SDS011;11591;44.792;10.358;2022-10-16T04:30:49;19.00;;;10.70;;
22849;SDS011;11591;44.792;10.358;2022-10-16T04:33:15;19.80;;;11.18;;
22849;SDS011;11591;44.792;10.358;2022-10-16T04:35:43;23.45;;;10.35;;
22849;SDS011;11591;44.792;10.358;2022-10-16T04:38:10;19.35;;;10.02;;
22849;SDS011;11591;44.792;10.358;2022-10-16T04:40:39;18.70;;;9.55;;
22849;SDS011;11591;44.792;10.358;2022-10-16T04:43:08;18.20;;;9.43;;
22849;SDS011;11591;44.792;10.358;2022-10-16T04:45:36;17.70;;;9.23;;
22849;SDS011;11591;44.792;10.358;2022-10-16T04:48:02;17.40;;;9.90;;
22849;SDS011;11591;44.792;10.358;2022-10-16T04:50:28;17.00;;;9.52;;
22849;SDS011;11591;44.792;10.358;2022-10-16T04:53:04;17.02;;;9.00;;
22849;SDS011;11591;44.792;10.358;2022-10-16T04:55:30;21.25;;;9.18;;
22849;SDS011;11591;44.792;10.358;2022-10-16T04:57:56;14.90;;;8.75;;
22849;SDS011;11591;44.792;10.358;2022-10-16T05:00:22;12.10;;;7.60;;
22849;SDS011;11591;44.792;10.358;2022-10-16T05:02:49;15.90;;;8.57;;
22849;SDS011;11591;44.792;10.358;2022-10-16T05:05:16;13.90;;;7.45;;
22849;SDS011;11591;44.792;10.358;2022-10-16T05:07:44;12.07;;;7.40;;
22849;SDS011;11591;44.792;10.358;2022-10-16T05:10:14;12.35;;;7.20;;
22849;SDS011;11591;44.792;10.358;2022-10-16T05:12:41;14.00;;;6.90;;
22849;SDS011;11591;44.792;10.358;2022-10-16T05:15:07;10.52;;;6.35;;
22849;SDS011;11591;44.792;10.358;2022-10-16T05:17:33;17.48;;;7.03;;
22849;SDS011;11591;44.792;10.358;2022-10-16T05:19:59;12.35;;;6.90;;
22849;SDS011;11591;44.792;10.358;2022-10-16T05:22:24;14.48;;;6.90;;
22849;SDS011;11591;44.792;10.358;2022-10-16T05:24:50;11.07;;;6.75;;
22849;SDS011;11591;44.792;10.358;2022-10-16T05:27:16;12.82;;;6.85;;
22849;SDS011;11591;44.792;10.358;2022-10-16T05:29:48;13.77;;;5.40;;
22849;SDS011;11591;44.792;10.358;2022-10-16T05:32:14;8.02;;;6.18;;
22849;SDS011;11591;44.792;10.358;2022-10-16T05:34:41;15.15;;;5.90;;
22849;SDS011;11591;44.792;10.358;2022-10-16T05:37:07;14.45;;;6.30;;
22849;SDS011;11591;44.792;10.358;2022-10-16T05:39:33;11.27;;;6.00;;
22849;SDS011;11591;44.792;10.358;2022-10-16T05:41:59;14.00;;;6.22;;
22849;SDS011;11591;44.792;10.358;2022-10-16T05:44:24;8.52;;;5.53;;
22849;SDS011;11591;44.792;10.358;2022-10-16T05:46:50;7.47;;;5.20;;
22849;SDS011;11591;44.792;10.358;2022-10-16T05:49:16;7.68;;;5.22;;
22849;SDS011;11591;44.792;10.358;2022-10-16T05:51:42;11.43;;;5.82;;
22849;SDS011;11591;44.792;10.358;2022-10-16T05:54:08;9.00;;;5.68;;
22849;SDS011;11591;44.792;10.358;2022-10-16T05:56:34;10.82;;;5.85;;
22849;SDS011;11591;44.792;10.358;2022-10-16T05:58:59;13.77;;;6.63;;
22849;SDS011;11591;44.792;10.358;2022-10-16T06:01:25;14.15;;;7.75;;
22849;SDS011;11591;44.792;10.358;2022-10-16T06:03:51;11.02;;;6.78;;
22849;SDS011;11591;44.792;10.358;2022-10-16T06:06:18;17.30;;;7.15;;
22849;SDS011;11591;44.792;10.358;2022-10-16T06:08:46;13.57;;;6.65;;
22849;SDS011;11591;44.792;10.358;2022-10-16T06:11:14;14.68;;;7.40;;
22849;SDS011;11591;44.792;10.358;2022-10-16T06:13:44;14.25;;;7.30;;
22849;SDS011;11591;44.792;10.358;2022-10-16T06:16:13;25.52;;;13.38;;
22849;SDS011;11591;44.792;10.358;2022-10-16T06:18:39;22.67;;;13.32;;
22849;SDS011;11591;44.792;10.358;2022-10-16T06:21:10;24.63;;;15.07;;
22849;SDS011;11591;44.792;10.358;2022-10-16T06:23:37;18.85;;;11.13;;
22849;SDS011;11591;44.792;10.358;2022-10-16T06:26:11;14.70;;;8.40;;
22849;SDS011;11591;44.792;10.358;2022-10-16T06:28:44;17.50;;;8.30;;
22849;SDS011;11591;44.792;10.358;2022-10-16T06:31:11;16.20;;;8.30;;
22849;SDS011;11591;44.792;10.358;2022-10-16T06:33:43;15.50;;;9.15;;
22849;SDS011;11591;44.792;10.358;2022-10-16T06:36:11;18.33;;;10.25;;
22849;SDS011;11591;44.792;10.358;2022-10-16T06:38:39;26.27;;;11.63;;
22849;SDS011;11591;44.792;10.358;2022-10-16T06:41:06;20.92;;;10.95;;
22849;SDS011;11591;44.792;10.358;2022-10-16T06:43:33;20.80;;;12.23;;
22849;SDS011;11591;44.792;10.358;2022-10-16T06:46:02;21.73;;;11.50;;
22849;SDS011;11591;44.792;10.358;2022-10-16T06:48:29;37.47;;;20.58;;
22849;SDS011;11591;44.792;10.358;2022-10-16T06:51:14;17.90;;;10.07;;
22849;SDS011;11591;44.792;10.358;2022-10-16T06:53:45;22.27;;;10.02;;
22849;SDS011;11591;44.792;10.358;2022-10-16T06:56:17;19.48;;;9.88;;
22849;SDS011;11591;44.792;10.358;2022-10-16T06:58:43;20.85;;;12.85;;
22849;SDS011;11591;44.792;10.358;2022-10-16T07:01:09;18.15;;;10.02;;
22849;SDS011;11591;44.792;10.358;2022-10-16T07:03:36;14.57;;;8.50;;
22849;SDS011;11591;44.792;10.358;2022-10-16T07:06:03;17.13;;;8.68;;
22849;SDS011;11591;44.792;10.358;2022-10-16T07:08:40;15.82;;;8.55;;
22849;SDS011;11591;44.792;10.358;2022-10-16T07:11:08;14.50;;;8.55;;
22849;SDS011;11591;44.792;10.358;2022-10-16T07:13:36;15.48;;;8.05;;
22849;SDS011;11591;44.792;10.358;2022-10-16T07:18:33;15.55;;;8.60;;
22849;SDS011;11591;44.792;10.358;2022-10-16T07:21:04;21.23;;;8.88;;
22849;SDS011;11591;44.792;10.358;2022-10-16T07:23:35;15.50;;;8.18;;
22849;SDS011;11591;44.792;10.358;2022-10-16T07:26:01;14.77;;;7.90;;
22849;SDS011;11591;44.792;10.358;2022-10-16T07:28:28;13.35;;;8.00;;
22849;SDS011;11591;44.792;10.358;2022-10-16T07:30:54;12.68;;;7.78;;
22849;SDS011;11591;44.792;10.358;2022-10-16T07:33:21;15.20;;;8.50;;
22849;SDS011;11591;44.792;10.358;2022-10-16T07:35:48;10.50;;;6.95;;
22849;SDS011;11591;44.792;10.358;2022-10-16T07:38:15;11.82;;;7.25;;
22849;SDS011;11591;44.792;10.358;2022-10-16T07:40:40;13.05;;;6.93;;
22849;SDS011;11591;44.792;10.358;2022-10-16T07:43:06;13.05;;;7.32;;
22849;SDS011;11591;44.792;10.358;2022-10-16T07:45:32;11.82;;;7.53;;
22849;SDS011;11591;44.792;10.358;2022-10-16T07:47:58;14.27;;;7.63;;
22849;SDS011;11591;44.792;10.358;2022-10-16T07:50:23;13.48;;;7.50;;
22849;SDS011;11591;44.792;10.358;2022-10-16T07:52:49;12.40;;;7.47;;
22849;SDS011;11591;44.792;10.358;2022-10-16T07:55:15;15.13;;;8.43;;
22849;SDS011;11591;44.792;10.358;2022-10-16T07:57:41;16.02;;;8.95;;
22849;SDS011;11591;44.792;10.358;2022-10-16T08:00:07;23.95;;;11.73;;
22849;SDS011;11591;44.792;10.358;2022-10-16T08:02:38;25.30;;;15.05;;
22849;SDS011;11591;44.792;10.358;2022-10-16T08:05:05;23.48;;;10.40;;
22849;SDS011;11591;44.792;10.358;2022-10-16T08:07:31;18.42;;;9.32;;
22849;SDS011;11591;44.792;10.358;2022-10-16T08:09:57;22.92;;;13.35;;
22849;SDS011;11591;44.792;10.358;2022-10-16T08:12:24;25.30;;;11.15;;
22849;SDS011;11591;44.792;10.358;2022-10-16T08:14:50;22.40;;;11.60;;
22849;SDS011;11591;44.792;10.358;2022-10-16T08:17:16;27.35;;;11.15;;
22849;SDS011;11591;44.792;10.358;2022-10-16T08:19:46;25.85;;;11.98;;
22849;SDS011;11591;44.792;10.358;2022-10-16T08:22:13;25.50;;;11.93;;
22849;SDS011;11591;44.792;10.358;2022-10-16T08:24:39;24.30;;;11.82;;
22849;SDS011;11591;44.792;10.358;2022-10-16T08:27:05;19.90;;;11.38;;
22849;SDS011;11591;44.792;10.358;2022-10-16T08:29:31;34.42;;;16.45;;
22849;SDS011;11591;44.792;10.358;2022-10-16T08:31:57;28.85;;;14.23;;
22849;SDS011;11591;44.792;10.358;2022-10-16T08:34:23;26.33;;;15.27;;
22849;SDS011;11591;44.792;10.358;2022-10-16T08:36:49;30.42;;;15.38;;
22849;SDS011;11591;44.792;10.358;2022-10-16T08:39:17;28.90;;;15.25;;
22849;SDS011;11591;44.792;10.358;2022-10-16T08:49:37;46.72;;;24.10;;
22849;SDS011;11591;44.792;10.358;2022-10-16T08:52:08;49.28;;;26.20;;
22849;SDS011;11591;44.792;10.358;2022-10-16T08:54:39;56.28;;;25.42;;
22849;SDS011;11591;44.792;10.358;2022-10-16T08:57:26;49.55;;;25.45;;
22849;SDS011;11591;44.792;10.358;2022-10-16T08:59:53;49.55;;;24.95;;
22849;SDS011;11591;44.792;10.358;2022-10-16T09:02:37;58.50;;;26.60;;
22849;SDS011;11591;44.792;10.358;2022-10-16T09:08:54;50.42;;;25.85;;
22849;SDS011;11591;44.792;10.358;2022-10-16T09:19:51;39.58;;;19.00;;
22849;SDS011;11591;44.792;10.358;2022-10-16T09:22:28;44.35;;;21.17;;
22849;SDS011;11591;44.792;10.358;2022-10-16T09:24:59;40.88;;;22.45;;
22849;SDS011;11591;44.792;10.358;2022-10-16T09:27:26;43.28;;;22.45;;
22849;SDS011;11591;44.792;10.358;2022-10-16T09:29:52;44.67;;;23.10;;
22849;SDS011;11591;44.792;10.358;2022-10-16T09:32:19;47.45;;;24.45;;
22849;SDS011;11591;44.792;10.358;2022-10-16T09:34:48;53.50;;;26.83;;
22849;SDS011;11591;44.792;10.358;2022-10-16T09:37:18;46.65;;;23.83;;
22849;SDS011;11591;44.792;10.358;2022-10-16T09:39:53;47.65;;;24.60;;
22849;SDS011;11591;44.792;10.358;2022-10-16T09:42:20;44.70;;;22.40;;
22849;SDS011;11591;44.792;10.358;2022-10-16T09:44:50;38.65;;;21.98;;
22849;SDS011;11591;44.792;10.358;2022-10-16T09:47:19;51.67;;;23.92;;
22849;SDS011;11591;44.792;10.358;2022-10-16T09:49:55;43.40;;;22.35;;
22849;SDS011;11591;44.792;10.358;2022-10-16T09:52:25;45.67;;;21.88;;
22849;SDS011;11591;44.792;10.358;2022-10-16T09:54:58;42.80;;;21.98;;
22849;SDS011;11591;44.792;10.358;2022-10-16T09:57:26;42.63;;;21.45;;
22849;SDS011;11591;44.792;10.358;2022-10-16T09:59:56;51.40;;;27.08;;
22849;SDS011;11591;44.792;10.358;2022-10-16T10:02:30;52.80;;;28.17;;
22849;SDS011;11591;44.792;10.358;2022-10-16T10:04:59;53.53;;;26.60;;
22849;SDS011;11591;44.792;10.358;2022-10-16T10:07:27;50.00;;;27.55;;
22849;SDS011;11591;44.792;10.358;2022-10-16T10:09:58;55.83;;;29.40;;
22849;SDS011;11591;44.792;10.358;2022-10-16T10:12:25;59.97;;;29.85;;
22849;SDS011;11591;44.792;10.358;2022-10-16T10:14:57;53.28;;;27.48;;
22849;SDS011;11591;44.792;10.358;2022-10-16T10:17:28;50.15;;;26.95;;
22849;SDS011;11591;44.792;10.358;2022-10-16T10:19:56;50.67;;;27.20;;
22849;SDS011;11591;44.792;10.358;2022-10-16T10:30:44;49.58;;;24.58;;
22849;SDS011;11591;44.792;10.358;2022-10-16T10:36:22;42.47;;;23.75;;
22849;SDS011;11591;44.792;10.358;2022-10-16T10:38:56;46.58;;;23.95;;
22849;SDS011;11591;44.792;10.358;2022-10-16T10:45:00;46.72;;;24.35;;
22849;SDS011;11591;44.792;10.358;2022-10-16T10:55:45;52.72;;;25.70;;
22849;SDS011;11591;44.792;10.358;2022-10-16T11:01:13;46.83;;;24.92;;
22849;SDS011;11591;44.792;10.358;2022-10-16T11:06:31;50.28;;;24.70;;
22849;SDS011;11591;44.792;10.358;2022-10-16T11:09:15;43.00;;;23.17;;
22849;SDS011;11591;44.792;10.358;2022-10-16T11:11:46;40.17;;;22.00;;
22849;SDS011;11591;44.792;10.358;2022-10-16T11:16:56;44.63;;;24.13;;
22849;SDS011;11591;44.792;10.358;2022-10-16T11:19:35;51.72;;;26.27;;
22849;SDS011;11591;44.792;10.358;2022-10-16T11:36:12;50.60;;;29.50;;
22849;SDS011;11591;44.792;10.358;2022-10-16T11:41:23;53.03;;;27.52;;
22849;SDS011;11591;44.792;10.358;2022-10-16T11:46:32;52.75;;;27.58;;
22849;SDS011;11591;44.792;10.358;2022-10-16T11:49:06;45.67;;;26.63;;
22849;SDS011;11591;44.792;10.358;2022-10-16T11:51:43;58.95;;;29.42;;
22849;SDS011;11591;44.792;10.358;2022-10-16T11:56:46;47.55;;;25.98;;
22849;SDS011;11591;44.792;10.358;2022-10-16T11:59:40;53.17;;;26.58;;
22849;SDS011;11591;44.792;10.358;2022-10-16T12:02:26;44.97;;;24.25;;
22849;SDS011;11591;44.792;10.358;2022-10-16T12:10:23;49.00;;;27.00;;
22849;SDS011;11591;44.792;10.358;2022-10-16T12:12:53;48.80;;;26.88;;
22849;SDS011;11591;44.792;10.358;2022-10-16T12:15:25;50.50;;;25.17;;
22849;SDS011;11591;44.792;10.358;2022-10-16T12:17:53;48.40;;;25.25;;
22849;SDS011;11591;44.792;10.358;2022-10-16T12:20:21;53.10;;;26.48;;
22849;SDS011;11591;44.792;10.358;2022-10-16T12:22:59;42.60;;;24.13;;
22849;SDS011;11591;44.792;10.358;2022-10-16T12:25:39;47.38;;;25.20;;
22849;SDS011;11591;44.792;10.358;2022-10-16T12:30:52;40.53;;;22.60;;
22849;SDS011;11591;44.792;10.358;2022-10-16T12:33:21;49.13;;;26.55;;
22849;SDS011;11591;44.792;10.358;2022-10-16T12:35:51;57.33;;;28.58;;
22849;SDS011;11591;44.792;10.358;2022-10-16T12:38:26;48.78;;;25.23;;
22849;SDS011;11591;44.792;10.358;2022-10-16T12:43:35;47.92;;;24.58;;
22849;SDS011;11591;44.792;10.358;2022-10-16T12:46:18;50.95;;;26.63;;
22849;SDS011;11591;44.792;10.358;2022-10-16T12:51:41;52.47;;;27.98;;
22849;SDS011;11591;44.792;10.358;2022-10-16T12:54:14;48.75;;;26.70;;
22849;SDS011;11591;44.792;10.358;2022-10-16T13:07:56;45.58;;;25.60;;
22849;SDS011;11591;44.792;10.358;2022-10-16T13:16:14;52.85;;;25.70;;
22849;SDS011;11591;44.792;10.358;2022-10-16T13:30:01;34.53;;;19.52;;
22849;SDS011;11591;44.792;10.358;2022-10-16T13:35:31;33.45;;;19.33;;
22849;SDS011;11591;44.792;10.358;2022-10-16T13:40:47;32.20;;;18.10;;
22849;SDS011;11591;44.792;10.358;2022-10-16T13:43:18;35.75;;;18.95;;
22849;SDS011;11591;44.792;10.358;2022-10-16T13:48:56;27.15;;;16.85;;
22849;SDS011;11591;44.792;10.358;2022-10-16T13:51:23;26.27;;;16.00;;
22849;SDS011;11591;44.792;10.358;2022-10-16T13:53:49;25.30;;;15.68;;
22849;SDS011;11591;44.792;10.358;2022-10-16T13:56:17;22.52;;;13.93;;
22849;SDS011;11591;44.792;10.358;2022-10-16T13:58:45;22.33;;;14.10;;
22849;SDS011;11591;44.792;10.358;2022-10-16T14:01:16;29.83;;;14.25;;
22849;SDS011;11591;44.792;10.358;2022-10-16T14:03:48;22.75;;;13.30;;
22849;SDS011;11591;44.792;10.358;2022-10-16T14:06:16;22.13;;;13.48;;
22849;SDS011;11591;44.792;10.358;2022-10-16T14:08:45;21.38;;;13.88;;
22849;SDS011;11591;44.792;10.358;2022-10-16T14:11:19;20.08;;;12.20;;
22849;SDS011;11591;44.792;10.358;2022-10-16T14:13:47;24.92;;;12.90;;
22849;SDS011;11591;44.792;10.358;2022-10-16T14:16:18;17.80;;;10.85;;
22849;SDS011;11591;44.792;10.358;2022-10-16T14:18:50;17.98;;;11.05;;
22849;SDS011;11591;44.792;10.358;2022-10-16T14:21:31;20.55;;;11.77;;
22849;SDS011;11591;44.792;10.358;2022-10-16T14:23:58;19.38;;;9.65;;
22849;SDS011;11591;44.792;10.358;2022-10-16T14:26:40;17.00;;;10.85;;
22849;SDS011;11591;44.792;10.358;2022-10-16T14:29:13;14.38;;;10.02;;
22849;SDS011;11591;44.792;10.358;2022-10-16T14:31:42;19.08;;;10.13;;
22849;SDS011;11591;44.792;10.358;2022-10-16T14:34:25;17.83;;;10.02;;
22849;SDS011;11591;44.792;10.358;2022-10-16T14:37:23;20.33;;;13.18;;
22849;SDS011;11591;44.792;10.358;2022-10-16T14:39:52;19.65;;;11.30;;
22849;SDS011;11591;44.792;10.358;2022-10-16T14:42:20;14.98;;;10.35;;
22849;SDS011;11591;44.792;10.358;2022-10-16T14:44:49;16.95;;;11.15;;
22849;SDS011;11591;44.792;10.358;2022-10-16T14:47:18;20.20;;;11.43;;
22849;SDS011;11591;44.792;10.358;2022-10-16T14:49:50;22.30;;;10.30;;
22849;SDS011;11591;44.792;10.358;2022-10-16T14:52:16;18.50;;;10.25;;
22849;SDS011;11591;44.792;10.358;2022-10-16T14:54:42;16.80;;;10.32;;
22849;SDS011;11591;44.792;10.358;2022-10-16T14:57:18;14.95;;;9.90;;
22849;SDS011;11591;44.792;10.358;2022-10-16T14:59:47;16.20;;;11.00;;
22849;SDS011;11591;44.792;10.358;2022-10-16T15:04:51;20.00;;;9.50;;
22849;SDS011;11591;44.792;10.358;2022-10-16T15:07:17;17.98;;;10.20;;
22849;SDS011;11591;44.792;10.358;2022-10-16T15:09:43;17.25;;;9.38;;
22849;SDS011;11591;44.792;10.358;2022-10-16T15:12:11;15.38;;;8.52;;
22849;SDS011;11591;44.792;10.358;2022-10-16T15:14:37;15.43;;;9.02;;
22849;SDS011;11591;44.792;10.358;2022-10-16T15:17:07;14.95;;;8.68;;
22849;SDS011;11591;44.792;10.358;2022-10-16T15:19:36;19.42;;;9.02;;
22849;SDS011;11591;44.792;10.358;2022-10-16T15:22:02;16.80;;;8.23;;
22849;SDS011;11591;44.792;10.358;2022-10-16T15:24:28;15.45;;;7.97;;
22849;SDS011;11591;44.792;10.358;2022-10-16T15:26:53;15.88;;;7.97;;
22849;SDS011;11591;44.792;10.358;2022-10-16T15:29:19;15.27;;;8.40;;
22849;SDS011;11591;44.792;10.358;2022-10-16T15:31:45;12.25;;;8.20;;
22849;SDS011;11591;44.792;10.358;2022-10-16T15:34:12;14.02;;;8.63;;
22849;SDS011;11591;44.792;10.358;2022-10-16T15:36:39;18.50;;;9.25;;
22849;SDS011;11591;44.792;10.358;2022-10-16T15:39:06;14.98;;;8.63;;
22849;SDS011;11591;44.792;10.358;2022-10-16T15:41:40;11.98;;;8.00;;
22849;SDS011;11591;44.792;10.358;2022-10-16T15:44:07;15.50;;;8.27;;
22849;SDS011;11591;44.792;10.358;2022-10-16T15:46:32;20.58;;;8.98;;
22849;SDS011;11591;44.792;10.358;2022-10-16T15:48:59;18.63;;;8.93;;
22849;SDS011;11591;44.792;10.358;2022-10-16T15:51:26;14.38;;;8.52;;
22849;SDS011;11591;44.792;10.358;2022-10-16T15:53:57;19.25;;;9.35;;
22849;SDS011;11591;44.792;10.358;2022-10-16T15:56:24;15.65;;;9.18;;
22849;SDS011;11591;44.792;10.358;2022-10-16T15:58:54;16.48;;;8.93;;
22849;SDS011;11591;44.792;10.358;2022-10-16T16:01:20;17.95;;;9.88;;
22849;SDS011;11591;44.792;10.358;2022-10-16T16:03:46;16.48;;;9.00;;
22849;SDS011;11591;44.792;10.358;2022-10-16T16:06:13;20.38;;;9.68;;
22849;SDS011;11591;44.792;10.358;2022-10-16T16:08:39;19.52;;;10.68;;
22849;SDS011;11591;44.792;10.358;2022-10-16T16:11:09;16.77;;;9.50;;
22849;SDS011;11591;44.792;10.358;2022-10-16T16:13:36;16.25;;;8.68;;
22849;SDS011;11591;44.792;10.358;2022-10-16T16:16:07;15.00;;;8.30;;
22849;SDS011;11591;44.792;10.358;2022-10-16T16:18:34;12.27;;;8.45;;
22849;SDS011;11591;44.792;10.358;2022-10-16T16:21:01;16.92;;;8.95;;
22849;SDS011;11591;44.792;10.358;2022-10-16T16:23:27;15.18;;;9.10;;
22849;SDS011;11591;44.792;10.358;2022-10-16T16:26:03;18.63;;;9.45;;
22849;SDS011;11591;44.792;10.358;2022-10-16T16:28:30;13.50;;;9.07;;
22849;SDS011;11591;44.792;10.358;2022-10-16T16:30:57;16.25;;;8.98;;
22849;SDS011;11591;44.792;10.358;2022-10-16T16:33:24;20.00;;;10.18;;
22849;SDS011;11591;44.792;10.358;2022-10-16T16:35:50;17.10;;;8.45;;
22849;SDS011;11591;44.792;10.358;2022-10-16T16:38:16;14.85;;;8.55;;
22849;SDS011;11591;44.792;10.358;2022-10-16T16:40:41;15.13;;;8.70;;
22849;SDS011;11591;44.792;10.358;2022-10-16T16:43:07;16.27;;;8.57;;
22849;SDS011;11591;44.792;10.358;2022-10-16T16:45:36;14.15;;;8.85;;
22849;SDS011;11591;44.792;10.358;2022-10-16T16:48:02;14.10;;;8.68;;
22849;SDS011;11591;44.792;10.358;2022-10-16T16:50:28;13.32;;;8.63;;
22849;SDS011;11591;44.792;10.358;2022-10-16T16:52:53;14.98;;;9.02;;
22849;SDS011;11591;44.792;10.358;2022-10-16T16:55:19;15.23;;;10.40;;